Time;durP1;ratioP1;P1;durP2;ratioP2;P2;SDS_P1;SDS_P2;PMS_P1;PMS_P2;Temp;Humidity;BMP_temperature;BMP_pressure;BME280_temperature;BME280_humidity;BME280_pressure;Samples;Min_cycle;Max_cycle;Signal;HPM_P1;HPM_P2
2023/06/28 00:04:37;;;;;;;8.35;3.10;;;;;;;14.16;63.94;100618.66;10199109;29;20047;-78
2023/06/28 00:09:40;;;;;;;7.78;2.70;;;;;;;14.26;63.53;100631.31;10202947;29;20075;-78
2023/06/28 00:14:44;;;;;;;5.43;2.47;;;;;;;14.27;63.60;100628.47;10187670;29;20048;-78
2023/06/28 00:19:48;;;;;;;5.47;2.40;;;;;;;14.25;63.33;100627.75;10193745;29;20066;-78
2023/06/28 00:24:51;;;;;;;8.55;2.67;;;;;;;14.24;63.90;100631.47;10197742;29;20055;-78
2023/06/28 00:29:56;;;;;;;8.73;2.60;;;;;;;14.30;63.30;100621.94;10197805;29;20537;-78
2023/06/28 00:47:54;;;;;;;4.38;2.80;;;;;;;14.15;64.23;100632.28;10205134;29;20390;-77
2023/06/28 00:52:57;;;;;;;4.35;2.60;;;;;;;14.04;64.40;100644.13;10206092;29;20040;-77
2023/06/28 00:58:01;;;;;;;7.25;2.90;;;;;;;14.02;64.56;100643.41;10200448;29;20400;-78
2023/06/28 01:03:05;;;;;;;8.93;3.20;;;;;;;13.87;64.75;100645.63;10209085;29;20044;-78
2023/06/28 01:08:08;;;;;;;19.20;5.25;;;;;;;13.65;65.47;100652.13;10221141;29;20044;-78
2023/06/28 01:13:11;;;;;;;9.55;2.90;;;;;;;13.64;65.68;100650.41;10210052;29;20099;-78
2023/06/28 01:18:19;;;;;;;8.27;3.47;;;;;;;13.73;65.77;100645.19;10215755;29;20047;-78
2023/06/28 01:23:25;;;;;;;7.07;2.88;;;;;;;13.76;65.26;100645.75;10226396;29;20055;-79
2023/06/28 01:28:29;;;;;;;7.25;2.90;;;;;;;13.70;65.81;100660.66;10207865;29;20085;-78
2023/06/28 01:33:32;;;;;;;5.18;2.90;;;;;;;13.77;65.91;100658.28;10207860;29;20100;-78
2023/06/28 01:38:37;;;;;;;4.78;2.75;;;;;;;13.83;65.61;100654.16;10223643;29;20099;-77
2023/06/28 01:43:41;;;;;;;12.73;3.13;;;;;;;13.90;65.09;100664.28;10219570;29;20381;-77
2023/06/28 01:48:44;;;;;;;6.28;3.08;;;;;;;13.79;65.18;100650.88;10219176;29;20043;-78
2023/06/28 01:53:48;;;;;;;8.02;3.15;;;;;;;13.68;65.11;100654.53;10202803;29;20511;-77
2023/06/28 01:58:51;;;;;;;4.15;2.58;;;;;;;13.63;65.62;100658.66;10200914;29;20072;-77
2023/06/28 02:03:54;;;;;;;9.85;3.35;;;;;;;13.56;65.97;100652.97;10230427;29;20047;-77
2023/06/28 02:08:59;;;;;;;12.73;4.10;;;;;;;13.39;66.37;100659.84;10216694;29;20048;-77
2023/06/28 02:14:02;;;;;;;8.35;4.18;;;;;;;13.26;67.36;100659.19;10211973;29;20456;-78
2023/06/28 02:19:05;;;;;;;10.32;4.15;;;;;;;13.15;67.71;100651.19;10206829;29;20045;-77
2023/06/28 02:24:09;;;;;;;5.57;3.80;;;;;;;13.15;68.01;100653.91;10206837;29;20056;-77
2023/06/28 02:29:12;;;;;;;7.47;3.22;;;;;;;13.04;68.62;100652.97;10205760;29;20044;-77
2023/06/28 02:34:15;;;;;;;12.20;3.97;;;;;;;13.17;68.69;100649.22;10203702;29;20127;-78
2023/06/28 02:39:20;;;;;;;6.18;3.03;;;;;;;13.15;68.06;100651.19;10207342;29;20067;-78
2023/06/28 02:44:23;;;;;;;9.30;3.20;;;;;;;13.09;68.32;100654.44;10214737;29;20048;-78
2023/06/28 02:49:27;;;;;;;5.63;3.10;;;;;;;13.23;68.35;100652.22;10211202;29;20058;-78
2023/06/28 02:54:32;;;;;;;8.80;3.45;;;;;;;13.32;67.97;100655.94;10209713;29;20043;-78
2023/06/28 02:59:35;;;;;;;9.63;2.92;;;;;;;13.40;67.65;100652.63;10221905;28;20150;-78
2023/06/28 03:04:39;;;;;;;6.03;2.78;;;;;;;13.42;67.55;100654.19;10211999;29;20432;-77
2023/06/28 03:09:45;;;;;;;9.38;2.55;;;;;;;13.41;67.36;100651.63;10222570;29;20055;-78
2023/06/28 03:14:49;;;;;;;6.20;2.88;;;;;;;13.34;67.46;100656.69;10222617;29;20051;-77
2023/06/28 03:19:52;;;;;;;6.88;2.80;;;;;;;13.37;67.40;100656.44;10216063;29;20044;-78
2023/06/28 03:24:56;;;;;;;10.18;2.78;;;;;;;13.43;67.34;100657.72;10227826;29;20071;-78
2023/06/28 03:29:59;;;;;;;2.83;2.15;;;;;;;13.39;67.43;100659.84;10211551;29;20071;-78
2023/06/28 03:35:04;;;;;;;9.15;3.15;;;;;;;13.49;67.36;100659.88;10215488;29;20455;-77
2023/06/28 03:40:09;;;;;;;5.97;2.60;;;;;;;13.60;67.42;100645.44;10205434;29;20169;-78
2023/06/28 03:45:15;;;;;;;6.47;2.90;;;;;;;13.67;67.27;100638.50;10207467;29;20571;-78
2023/06/28 03:50:20;;;;;;;6.63;2.97;;;;;;;13.71;67.31;100639.91;10206644;29;20060;-77
2023/06/28 03:55:24;;;;;;;9.98;2.95;;;;;;;13.90;67.20;100642.69;10211026;29;20036;-78
2023/06/28 04:00:27;;;;;;;6.50;2.78;;;;;;;14.00;66.92;100642.69;10207001;29;20050;-78
2023/06/28 04:05:30;;;;;;;7.75;2.83;;;;;;;14.13;66.84;100648.66;10209925;29;20044;-78
2023/06/28 04:10:35;;;;;;;11.27;3.30;;;;;;;14.10;66.46;100648.94;10199590;29;20185;-77
2023/06/28 04:15:38;;;;;;;6.47;2.92;;;;;;;14.04;66.74;100654.03;10197682;29;20048;-78
2023/06/28 04:20:40;;;;;;;8.02;3.17;;;;;;;14.24;66.98;100657.63;10203156;29;20067;-78
2023/06/28 04:25:46;;;;;;;8.50;2.88;;;;;;;14.41;66.57;100645.28;10203023;29;20551;-78
2023/06/28 04:30:49;;;;;;;7.20;3.40;;;;;;;14.61;66.36;100649.66;10217843;29;20107;-78
2023/06/28 04:35:52;;;;;;;12.90;4.10;;;;;;;14.73;66.21;100662.06;10207672;29;20059;-78
2023/06/28 04:40:57;;;;;;;7.43;3.92;;;;;;;14.87;66.32;100655.34;10213846;29;20055;-78
2023/06/28 04:46:00;;;;;;;11.07;4.82;;;;;;;14.92;65.84;100657.56;10213039;29;20079;-78
2023/06/28 04:51:04;;;;;;;8.00;4.57;;;;;;;14.93;65.24;100656.59;10195635;29;20067;-78
2023/06/28 04:56:08;;;;;;;10.23;4.38;;;;;;;14.77;65.30;100662.59;10198432;29;20048;-78
2023/06/28 05:01:11;;;;;;;9.05;4.05;;;;;;;14.81;65.75;100664.03;10204356;29;20054;-78
2023/06/28 05:06:14;;;;;;;7.35;3.75;;;;;;;14.89;66.21;100674.09;10207473;29;20061;-78
2023/06/28 05:11:19;;;;;;;6.28;3.47;;;;;;;14.98;65.91;100667.84;10209028;29;20044;-78
2023/06/28 05:16:21;;;;;;;6.20;4.40;;;;;;;15.03;65.62;100666.41;10210060;29;20036;-78
2023/06/28 05:21:24;;;;;;;7.72;2.00;;;;;;;15.18;65.99;100664.06;10222942;29;20042;-78
2023/06/28 05:26:29;;;;;;;7.18;3.33;;;;;;;15.63;65.73;100663.34;10225278;29;20055;-78
2023/06/28 05:31:32;;;;;;;5.68;2.05;;;;;;;15.89;64.58;100654.50;10212718;29;20504;-79
2023/06/28 05:36:38;;;;;;;5.28;2.33;;;;;;;16.19;63.80;100653.28;10222142;29;20404;-78
2023/06/28 05:41:44;;;;;;;3.92;2.20;;;;;;;16.56;63.14;100654.97;10220440;29;20048;-78
2023/06/28 05:46:48;;;;;;;4.68;3.15;;;;;;;16.64;61.56;100656.91;10224332;29;20127;-78
2023/06/28 05:51:51;;;;;;;7.65;3.70;;;;;;;16.36;62.32;100660.59;10226443;29;20055;-78
2023/06/28 05:56:57;;;;;;;10.27;3.05;;;;;;;16.32;63.19;100656.50;10221375;29;20531;-78
2023/06/28 06:02:00;;;;;;;6.00;2.85;;;;;;;16.40;62.94;100658.44;10213184;29;20048;-78
2023/06/28 06:07:03;;;;;;;9.48;3.83;;;;;;;16.66;62.06;100663.03;10208827;29;20035;-77
2023/06/28 06:12:08;;;;;;;5.85;2.30;;;;;;;16.58;62.33;100664.66;10202959;29;20075;-77
2023/06/28 06:17:11;;;;;;;9.43;4.10;;;;;;;16.57;62.84;100654.00;10201854;29;20052;-77
2023/06/28 06:22:14;;;;;;;11.00;3.63;;;;;;;16.54;63.53;100641.59;10200532;29;20130;-77
2023/06/28 06:27:18;;;;;;;10.43;4.90;;;;;;;16.21;63.87;100644.97;10199645;29;20435;-77
2023/06/28 06:32:21;;;;;;;6.88;3.40;;;;;;;16.61;64.04;100652.66;10199151;29;20059;-77
2023/06/28 06:37:24;;;;;;;7.35;3.63;;;;;;;17.00;62.90;100650.41;10190762;29;20044;-77
2023/06/28 06:42:28;;;;;;;8.07;3.65;;;;;;;17.06;62.41;100661.63;10195774;29;20036;-77
2023/06/28 06:47:31;;;;;;;10.57;4.15;;;;;;;16.90;62.51;100665.09;10203411;29;20400;-77
2023/06/28 06:52:35;;;;;;;8.15;3.63;;;;;;;17.01;61.56;100656.69;10200950;29;20091;-76
2023/06/28 06:57:39;;;;;;;7.93;3.92;;;;;;;16.99;60.81;100664.97;10204263;29;20044;-76
2023/06/28 07:02:42;;;;;;;7.68;3.55;;;;;;;17.29;59.80;100664.69;10201839;29;20095;-76
2023/06/28 07:07:45;;;;;;;8.15;3.58;;;;;;;17.36;60.49;100663.00;10200489;29;20040;-76
2023/06/28 07:12:49;;;;;;;10.13;4.03;;;;;;;17.50;58.87;100665.13;10203014;29;20102;-76
2023/06/28 07:17:54;;;;;;;8.77;3.22;;;;;;;17.69;58.31;100670.31;10194783;29;20139;-76
2023/06/28 07:22:57;;;;;;;10.35;3.50;;;;;;;17.95;57.61;100660.38;10215394;29;20547;-77
2023/06/28 07:28:01;;;;;;;9.88;3.42;;;;;;;19.78;53.89;100665.34;10217872;29;20035;-77
2023/06/28 07:33:04;;;;;;;6.32;3.28;;;;;;;21.05;48.89;100672.13;10207115;29;20035;-77
2023/06/28 07:38:07;;;;;;;8.50;3.30;;;;;;;23.08;44.95;100666.69;10198335;29;20036;-77
2023/06/28 07:43:12;;;;;;;6.85;3.30;;;;;;;20.91;48.37;100676.50;10197082;29;20051;-76
2023/06/28 07:48:15;;;;;;;8.07;3.10;;;;;;;21.97;48.18;100670.88;10203149;29;20055;-76
2023/06/28 07:53:18;;;;;;;5.97;2.65;;;;;;;21.29;47.60;100671.00;10192863;29;20043;-77
2023/06/28 07:58:22;;;;;;;7.53;2.83;;;;;;;20.42;49.91;100684.25;10194055;29;20407;-76
2023/06/28 08:03:25;;;;;;;13.68;2.90;;;;;;;19.20;51.99;100672.84;10200826;29;20050;-78
2023/06/28 08:08:28;;;;;;;5.15;1.90;;;;;;;18.79;52.29;100676.50;10201258;29;20073;-77
2023/06/28 08:13:32;;;;;;;10.18;2.80;;;;;;;19.84;50.89;100675.53;10197278;29;20047;-76
2023/06/28 08:18:35;;;;;;;6.63;2.35;;;;;;;20.41;49.58;100661.56;10197621;29;20468;-76
2023/06/28 08:23:38;;;;;;;5.30;1.88;;;;;;;20.01;49.10;100660.78;10194592;29;20507;-77
2023/06/28 08:28:42;;;;;;;8.55;2.33;;;;;;;20.04;50.68;100665.03;10195557;29;20039;-76
2023/06/28 08:34:02;;;;;;;8.63;2.40;;;;;;;20.52;48.82;100671.22;10199377;29;20130;-76
2023/06/28 08:39:05;;;;;;;4.78;1.98;;;;;;;21.70;46.13;100669.69;10198021;29;20134;-77
2023/06/28 08:44:13;;;;;;;7.65;2.63;;;;;;;22.34;43.74;100662.44;10203472;29;20047;-78
2023/06/28 08:49:17;;;;;;;5.47;1.95;;;;;;;20.28;46.68;100666.75;10196718;29;20522;-77
2023/06/28 08:54:22;;;;;;;4.47;1.60;;;;;;;20.04;46.34;100652.22;10178212;29;20040;-77
2023/06/28 08:59:27;;;;;;;6.57;1.67;;;;;;;20.05;47.13;100647.66;10189560;29;20032;-77
2023/06/28 09:04:30;;;;;;;3.00;1.88;;;;;;;20.56;46.11;100629.72;10197683;29;20119;-77
2023/06/28 09:09:35;;;;;;;6.53;1.83;;;;;;;21.24;44.65;100627.03;10195583;29;20083;-77
2023/06/28 09:14:40;;;;;;;3.50;1.40;;;;;;;20.77;46.37;100625.44;10203318;29;20048;-77
2023/06/28 09:19:43;;;;;;;6.25;2.15;;;;;;;20.47;47.23;100647.19;10196752;29;20048;-76
2023/06/28 09:24:49;;;;;;;4.20;1.42;;;;;;;20.71;44.90;100639.84;10211421;29;20593;-77
2023/06/28 09:30:00;;;;;;;4.55;1.90;;;;;;;20.76;45.27;100651.91;10193714;29;20039;-77
2023/06/28 09:35:10;;;;;;;6.00;2.22;;;;;;;20.84;45.62;100652.84;10198334;29;20044;-77
2023/06/28 09:40:15;;;;;;;6.38;1.75;;;;;;;21.47;45.01;100656.97;10193169;29;20070;-77
2023/06/28 09:45:27;;;;;;;5.43;2.47;;;;;;;20.84;45.33;100647.38;10195388;29;20040;-76
2023/06/28 09:50:38;;;;;;;4.97;1.70;;;;;;;20.61;45.74;100640.09;10202956;29;20036;-77
2023/06/28 09:55:43;;;;;;;6.87;2.47;;;;;;;21.34;44.60;100641.25;10183524;29;20052;-77
2023/06/28 10:00:49;;;;;;;4.18;2.42;;;;;;;20.86;46.59;100646.16;10179403;29;20047;-78
2023/06/28 10:05:56;;;;;;;5.05;2.67;;;;;;;20.32;48.18;100654.47;10195338;29;20051;-77
2023/06/28 10:10:59;;;;;;;5.93;2.60;;;;;;;20.66;47.38;100647.72;10213992;29;20044;-77
2023/06/28 10:16:08;;;;;;;3.58;2.13;;;;;;;20.55;46.46;100652.59;10203316;29;20075;-77
2023/06/28 10:21:11;;;;;;;5.18;2.00;;;;;;;21.39;43.45;100647.00;10200822;29;20054;-77
2023/06/28 10:26:16;;;;;;;5.18;2.05;;;;;;;21.34;43.80;100638.50;10201235;29;20048;-77
2023/06/28 10:31:21;;;;;;;6.22;2.10;;;;;;;20.48;46.55;100637.97;10191007;29;20044;-77
2023/06/28 10:36:27;;;;;;;4.72;2.03;;;;;;;20.91;46.52;100634.69;10196518;29;20794;-77
2023/06/28 10:41:30;;;;;;;4.45;1.98;;;;;;;21.07;44.79;100637.28;10202987;29;20076;-77
2023/06/28 10:46:36;;;;;;;5.00;1.73;;;;;;;21.86;44.17;100632.06;10198438;29;20139;-77
2023/06/28 10:51:44;;;;;;;4.35;2.05;;;;;;;22.64;42.90;100629.47;10213763;29;20048;-77
2023/06/28 10:56:49;;;;;;;2.50;2.05;;;;;;;21.96;45.20;100628.16;10220071;29;20039;-77
2023/06/28 11:01:55;;;;;;;5.18;2.00;;;;;;;21.83;43.74;100632.44;10205505;29;20051;-78
2023/06/28 11:07:18;;;;;;;4.90;2.28;;;;;;;21.48;44.54;100628.63;10201755;29;20046;-77
2023/06/28 11:12:20;;;;;;;5.47;2.47;;;;;;;20.83;46.11;100632.88;10197097;29;20071;-77
2023/06/28 11:17:32;;;;;;;2.90;2.13;;;;;;;21.32;45.40;100626.91;10191052;29;20402;-76
2023/06/28 11:22:50;;;;;;;4.75;2.40;;;;;;;21.17;45.48;100623.34;10202439;29;20089;-77
2023/06/28 11:27:53;;;;;;;3.95;1.88;;;;;;;22.22;42.73;100625.72;10220776;29;20140;-77
2023/06/28 11:32:59;;;;;;;6.80;2.78;;;;;;;22.88;42.31;100617.25;10212343;29;20048;-78
2023/06/28 11:38:03;;;;;;;4.53;1.90;;;;;;;22.87;42.45;100615.53;10208408;29;20039;-78
2023/06/28 11:43:06;;;;;;;7.22;2.28;;;;;;;23.34;40.94;100613.09;10201080;29;20515;-77
2023/06/28 11:48:11;;;;;;;3.30;2.97;;;;;;;22.67;41.40;100609.91;10201747;29;20040;-77
2023/06/28 11:53:14;;;;;;;2.83;2.20;;;;;;;22.18;43.14;100602.50;10205222;29;20047;-77
2023/06/28 11:58:26;;;;;;;4.25;2.20;;;;;;;23.73;41.81;100608.88;10204751;29;20036;-78
2023/06/28 12:03:32;;;;;;;5.53;2.30;;;;;;;23.73;40.99;100606.13;10221707;29;20039;-78
2023/06/28 12:08:36;;;;;;;6.68;2.63;;;;;;;23.42;40.65;100596.50;10210175;29;20047;-77
2023/06/28 12:13:40;;;;;;;6.93;2.65;;;;;;;23.63;41.21;100584.56;10213593;29;20139;-77
2023/06/28 12:18:55;;;;;;;3.65;2.42;;;;;;;23.93;41.68;100603.47;10223205;29;20064;-77
2023/06/28 12:24:16;;;;;;;5.40;2.80;;;;;;;23.55;40.91;100598.47;10190243;29;20587;-77
2023/06/28 12:29:19;;;;;;;3.00;2.15;;;;;;;24.07;40.54;100589.56;10192594;29;20095;-76
2023/06/28 12:34:27;;;;;;;3.30;3.00;;;;;;;23.77;40.00;100602.78;10196908;29;20048;-76
2023/06/28 12:39:32;;;;;;;6.82;3.45;;;;;;;24.59;40.11;100575.28;10195349;29;20055;-76
2023/06/28 12:44:49;;;;;;;5.97;3.13;;;;;;;23.72;41.59;100580.56;10199511;29;20048;-76
2023/06/28 12:49:54;;;;;;;4.32;3.80;;;;;;;22.86;42.69;100581.00;10209388;29;20648;-76
2023/06/28 12:54:57;;;;;;;6.88;4.72;;;;;;;23.43;41.42;100589.97;10194611;29;20492;-76
2023/06/28 13:00:01;;;;;;;5.15;4.47;;;;;;;23.76;41.58;100590.13;10185939;29;20044;-76
2023/06/28 13:05:05;;;;;;;7.63;4.22;;;;;;;26.41;37.62;100573.25;10194194;29;20411;-76
2023/06/28 13:10:10;;;;;;;6.35;4.85;;;;;;;26.96;36.83;100589.97;10203829;29;20043;-77
2023/06/28 13:15:13;;;;;;;6.82;4.93;;;;;;;25.64;38.82;100598.06;10206603;29;20523;-77
2023/06/28 13:20:17;;;;;;;5.38;4.68;;;;;;;24.08;41.88;100601.41;10203129;29;20044;-76
2023/06/28 13:25:20;;;;;;;5.60;4.70;;;;;;;24.89;42.55;100581.97;10192653;29;20043;-77
2023/06/28 13:30:24;;;;;;;6.22;5.43;;;;;;;23.72;43.18;100596.19;10193021;29;20064;-76
2023/06/28 13:35:28;;;;;;;6.47;5.82;;;;;;;23.75;43.43;100591.16;10196645;29;20055;-77
2023/06/28 13:40:31;;;;;;;8.82;7.43;;;;;;;23.56;43.19;100603.75;10209654;29;20054;-77
2023/06/28 13:45:35;;;;;;;9.45;6.10;;;;;;;22.77;45.22;100591.25;10205422;29;20047;-76
2023/06/28 13:50:39;;;;;;;7.32;4.82;;;;;;;23.44;44.02;100594.41;10201412;29;20048;-77
2023/06/28 13:55:42;;;;;;;5.63;4.75;;;;;;;23.84;44.02;100597.34;10203580;29;20052;-77
2023/06/28 14:00:48;;;;;;;6.60;5.22;;;;;;;22.86;44.38;100588.38;10204629;29;20055;-77
2023/06/28 14:05:53;;;;;;;5.32;4.30;;;;;;;23.25;45.31;100589.69;10195351;29;20101;-77
2023/06/28 14:10:56;;;;;;;7.15;4.35;;;;;;;21.87;47.47;100591.88;10200492;29;20054;-77
2023/06/28 14:15:59;;;;;;;8.98;4.07;;;;;;;22.63;46.84;100585.91;10206809;29;20063;-77
2023/06/28 14:21:04;;;;;;;5.43;3.20;;;;;;;22.25;46.37;100570.59;10223150;28;20107;-78
2023/06/28 14:26:09;;;;;;;4.57;3.13;;;;;;;22.61;46.55;100574.28;10209311;29;20151;-79
2023/06/28 14:31:14;;;;;;;5.13;3.70;;;;;;;23.06;45.96;100570.16;10220879;29;20048;-77
2023/06/28 14:36:19;;;;;;;13.73;4.80;;;;;;;22.72;46.08;100574.56;10217293;29;20571;-76
2023/06/28 14:41:22;;;;;;;6.70;4.30;;;;;;;23.28;45.65;100564.59;10201659;29;20042;-77
2023/06/28 14:46:25;;;;;;;6.72;3.78;;;;;;;23.88;44.75;100561.03;10198881;29;20052;-77
2023/06/28 14:51:29;;;;;;;6.30;3.65;;;;;;;23.70;44.37;100560.75;10204811;29;20040;-77
2023/06/28 14:56:32;;;;;;;6.28;3.40;;;;;;;24.56;43.80;100554.56;10205215;29;20082;-77
2023/06/28 15:01:35;;;;;;;4.20;3.13;;;;;;;24.43;43.49;100554.56;10206059;29;20039;-77
2023/06/28 15:06:40;;;;;;;8.07;3.03;;;;;;;23.49;45.88;100548.03;10205794;29;20407;-77
2023/06/28 15:11:43;;;;;;;6.57;2.83;;;;;;;25.39;41.71;100546.53;10202766;29;20036;-77
2023/06/28 15:16:47;;;;;;;4.88;2.20;;;;;;;25.87;40.63;100544.44;10204381;29;20422;-77
2023/06/28 15:21:51;;;;;;;3.13;1.77;;;;;;;24.80;42.58;100542.06;10202557;29;20048;-76
2023/06/28 15:26:58;;;;;;;3.58;2.50;;;;;;;25.36;42.72;100533.22;10204643;29;20048;-76
2023/06/28 15:32:01;;;;;;;2.60;2.40;;;;;;;24.31;44.72;100537.88;10205814;29;20035;-76
2023/06/28 15:37:06;;;;;;;2.05;1.60;;;;;;;24.95;43.60;100536.31;10218297;29;20044;-78
2023/06/28 15:42:09;;;;;;;3.92;2.72;;;;;;;24.37;44.17;100541.66;10206250;29;20047;-77
2023/06/28 15:47:11;;;;;;;4.47;2.28;;;;;;;23.16;46.66;100548.75;10213393;29;20047;-76
2023/06/28 15:52:16;;;;;;;4.22;2.17;;;;;;;22.53;48.68;100537.78;10202203;29;20032;-77
2023/06/28 15:57:18;;;;;;;3.15;2.50;;;;;;;23.22;47.63;100536.13;10200099;29;20043;-78
2023/06/28 16:02:21;;;;;;;3.58;2.45;;;;;;;24.24;45.24;100526.88;10205198;29;20036;-77
2023/06/28 16:07:26;;;;;;;5.28;3.13;;;;;;;24.37;45.59;100530.69;10205524;29;20135;-77
2023/06/28 16:12:29;;;;;;;3.08;2.70;;;;;;;24.43;46.38;100527.13;10199310;29;20048;-77
2023/06/28 16:17:31;;;;;;;4.00;3.13;;;;;;;23.96;46.50;100529.81;10195908;29;20048;-76
2023/06/28 16:22:36;;;;;;;5.80;2.70;;;;;;;22.91;48.24;100533.84;10192982;29;20468;-77
2023/06/28 16:27:38;;;;;;;5.53;3.15;;;;;;;22.59;48.82;100544.38;10191811;29;20043;-76
2023/06/28 16:32:41;;;;;;;3.63;3.33;;;;;;;22.00;50.95;100544.69;10200349;29;20494;-77
2023/06/28 16:37:46;;;;;;;5.45;4.00;;;;;;;21.64;51.72;100542.81;10197307;29;20032;-78
2023/06/28 16:42:48;;;;;;;5.80;4.50;;;;;;;21.25;52.79;100532.25;10199502;29;20056;-77
2023/06/28 16:47:51;;;;;;;8.95;5.72;;;;;;;20.98;53.70;100537.31;10194326;29;20043;-77
2023/06/28 16:52:56;;;;;;;9.25;6.82;;;;;;;21.06;53.91;100537.25;10190012;29;20032;-78
2023/06/28 16:57:59;;;;;;;10.15;6.85;;;;;;;20.70;54.75;100539.88;10202123;29;20047;-77
2023/06/28 17:03:01;;;;;;;10.70;8.00;;;;;;;21.16;54.31;100531.50;10197930;29;20048;-78
2023/06/28 17:08:06;;;;;;;11.40;8.88;;;;;;;21.21;53.94;100537.25;10194960;29;20070;-78
2023/06/28 17:13:09;;;;;;;13.23;9.95;;;;;;;21.36;53.96;100531.75;10206702;29;20526;-77
2023/06/28 17:18:12;;;;;;;10.05;9.00;;;;;;;21.62;53.58;100534.81;10206262;29;20044;-77
2023/06/28 17:23:17;;;;;;;12.45;10.52;;;;;;;21.68;53.32;100535.91;10208752;29;20048;-78
2023/06/28 17:28:21;;;;;;;13.82;10.48;;;;;;;21.10;53.97;100543.22;10213851;29;20044;-79
2023/06/28 17:33:25;;;;;;;15.07;9.25;;;;;;;20.99;54.49;100542.59;10209016;29;20048;-79
2023/06/28 17:38:30;;;;;;;11.93;8.73;;;;;;;21.01;54.14;100539.69;10229946;29;20149;-78
2023/06/28 17:43:33;;;;;;;13.80;9.63;;;;;;;21.17;54.14;100536.81;10210464;29;20048;-77
2023/06/28 17:48:36;;;;;;;9.73;8.32;;;;;;;20.72;55.09;100538.66;10214384;29;20099;-78
2023/06/28 17:53:40;;;;;;;12.60;8.32;;;;;;;20.88;55.36;100542.25;10212493;29;20079;-78
2023/06/28 17:58:43;;;;;;;8.27;7.10;;;;;;;21.30;54.61;100540.72;10203570;29;20035;-78
2023/06/28 18:03:51;;;;;;;10.02;6.72;;;;;;;21.10;54.54;100545.94;10207192;29;20044;-79
2023/06/28 18:08:55;;;;;;;8.25;6.30;;;;;;;20.29;56.57;100548.41;10201667;29;20063;-77
2023/06/28 18:13:58;;;;;;;7.53;5.88;;;;;;;20.87;54.86;100549.59;10204623;29;20048;-78
2023/06/28 18:19:01;;;;;;;7.55;6.13;;;;;;;20.34;56.71;100554.22;10216949;29;20427;-78
2023/06/28 18:24:06;;;;;;;14.80;6.65;;;;;;;19.80;57.57;100549.69;10215393;29;20050;-78
2023/06/28 18:29:09;;;;;;;9.05;6.82;;;;;;;20.20;56.63;100552.25;10209994;29;20047;-77
2023/06/28 18:34:12;;;;;;;9.07;6.75;;;;;;;20.06;57.75;100554.75;10207352;29;20058;-78
2023/06/28 18:39:18;;;;;;;8.02;7.22;;;;;;;20.07;58.05;100545.53;10200599;29;20035;-78
2023/06/28 18:44:21;;;;;;;9.13;7.35;;;;;;;20.03;58.04;100543.38;10192582;29;20166;-77
2023/06/28 18:49:25;;;;;;;12.63;8.63;;;;;;;20.26;57.41;100537.88;10202115;29;20044;-77
2023/06/28 18:54:29;;;;;;;12.23;8.10;;;;;;;19.99;58.71;100542.03;10194013;29;20077;-77
2023/06/28 18:59:32;;;;;;;12.00;8.18;;;;;;;20.24;57.77;100545.38;10213960;29;20050;-78
2023/06/28 19:04:36;;;;;;;10.75;8.85;;;;;;;19.95;58.26;100547.00;10210269;29;20055;-77
2023/06/28 19:09:41;;;;;;;12.43;8.30;;;;;;;20.07;58.21;100542.81;10202438;29;20046;-77
2023/06/28 19:14:44;;;;;;;12.32;8.70;;;;;;;20.17;58.58;100544.44;10206652;29;20040;-76
2023/06/28 19:19:47;;;;;;;11.07;9.43;;;;;;;20.03;58.97;100544.22;10194052;29;20046;-77
2023/06/28 19:24:52;;;;;;;13.32;9.13;;;;;;;20.05;59.13;100550.34;10203391;29;20081;-79
2023/06/28 19:29:55;;;;;;;10.30;9.00;;;;;;;19.99;59.31;100550.19;10206070;29;20040;-77
2023/06/28 19:34:58;;;;;;;10.65;9.00;;;;;;;19.69;60.18;100558.25;10204654;29;20043;-78
2023/06/28 19:40:03;;;;;;;9.50;8.50;;;;;;;19.54;60.53;100563.59;10214961;29;20435;-77
2023/06/28 19:45:10;;;;;;;12.35;8.57;;;;;;;19.71;60.26;100558.91;10215146;29;20048;-76
2023/06/28 19:50:13;;;;;;;11.25;10.02;;;;;;;19.58;60.41;100561.38;10204592;29;20051;-77
2023/06/28 19:55:18;;;;;;;13.60;10.40;;;;;;;19.61;60.72;100564.63;10199259;29;20475;-78
2023/06/28 20:00:21;;;;;;;10.95;9.77;;;;;;;19.58;60.89;100556.81;10204512;29;20087;-78
2023/06/28 20:05:24;;;;;;;13.30;9.40;;;;;;;19.65;60.50;100565.09;10210968;29;20047;-78
2023/06/28 20:10:28;;;;;;;13.32;9.48;;;;;;;19.52;61.21;100565.63;10204099;29;20047;-78
2023/06/28 20:15:31;;;;;;;12.98;8.65;;;;;;;19.41;61.35;100566.88;10203567;29;20044;-78
2023/06/28 20:20:34;;;;;;;13.88;10.27;;;;;;;19.53;61.01;100564.63;10206608;29;20110;-78
2023/06/28 20:25:41;;;;;;;13.95;9.98;;;;;;;19.53;60.73;100569.19;10202172;29;20092;-76
2023/06/28 20:30:45;;;;;;;9.80;8.60;;;;;;;19.55;60.85;100565.28;10195610;29;20063;-78
2023/06/28 20:35:48;;;;;;;10.70;8.45;;;;;;;19.44;61.40;100558.38;10201233;29;20503;-77
2023/06/28 20:40:53;;;;;;;10.30;9.10;;;;;;;19.58;61.13;100559.53;10212740;29;20123;-78
2023/06/28 20:46:01;;;;;;;12.77;8.95;;;;;;;19.53;61.73;100571.94;10210695;29;20035;-79
2023/06/28 20:51:04;;;;;;;16.38;9.98;;;;;;;19.58;61.66;100567.69;10220307;29;20043;-77
2023/06/28 20:56:08;;;;;;;9.93;8.90;;;;;;;19.61;61.24;100574.63;10214480;29;20780;-77
2023/06/28 21:01:11;;;;;;;12.73;9.85;;;;;;;19.64;61.45;100568.84;10212496;29;20042;-77
2023/06/28 21:06:18;;;;;;;12.05;7.47;;;;;;;19.74;62.00;100572.19;10199739;29;20067;-78
2023/06/28 21:11:22;;;;;;;11.60;8.18;;;;;;;19.74;62.05;100564.00;10206197;29;20115;-78
2023/06/28 21:16:25;;;;;;;9.07;8.18;;;;;;;19.78;62.24;100561.78;10202377;29;20052;-76
2023/06/28 21:21:28;;;;;;;11.40;9.02;;;;;;;19.76;61.82;100559.22;10202775;29;20048;-77
2023/06/28 21:26:32;;;;;;;9.48;7.30;;;;;;;19.82;62.19;100566.69;10199243;29;20052;-77
2023/06/28 21:31:35;;;;;;;14.15;9.18;;;;;;;19.75;61.35;100554.81;10195551;29;20047;-76
2023/06/28 21:36:38;;;;;;;11.60;8.63;;;;;;;19.65;60.91;100555.03;10187821;29;20047;-77
2023/06/28 21:41:42;;;;;;;11.35;8.15;;;;;;;19.63;60.98;100554.34;10194609;29;20036;-77
2023/06/28 21:46:45;;;;;;;8.75;7.85;;;;;;;19.63;60.90;100554.34;10211663;29;20052;-77
2023/06/28 21:51:48;;;;;;;10.52;8.23;;;;;;;19.55;61.05;100550.81;10200732;29;20047;-77
2023/06/28 21:56:53;;;;;;;10.35;8.48;;;;;;;19.59;61.74;100552.19;10202452;29;20043;-77
2023/06/28 22:01:56;;;;;;;8.73;7.35;;;;;;;19.64;61.94;100558.81;10205273;29;20677;-77
2023/06/28 22:06:59;;;;;;;10.02;7.78;;;;;;;19.66;61.56;100551.31;10199900;29;20037;-77
2023/06/28 22:12:07;;;;;;;14.32;8.90;;;;;;;19.50;61.54;100556.81;10211717;29;20063;-77
2023/06/28 22:17:11;;;;;;;10.57;8.88;;;;;;;19.34;61.93;100548.72;10204848;29;20052;-77
2023/06/28 22:22:14;;;;;;;14.98;9.43;;;;;;;19.30;61.95;100552.81;10203121;29;20039;-77
2023/06/28 22:27:19;;;;;;;15.80;8.88;;;;;;;19.26;62.05;100546.88;10204629;29;20055;-76
2023/06/28 22:32:22;;;;;;;12.82;9.45;;;;;;;19.22;62.29;100549.09;10204252;29;20046;-76
2023/06/28 22:37:24;;;;;;;14.13;9.45;;;;;;;19.18;62.23;100546.91;10198527;29;20050;-76
2023/06/28 22:42:29;;;;;;;12.77;9.65;;;;;;;19.19;62.07;100551.31;10194704;29;20044;-77
2023/06/28 22:47:34;;;;;;;12.95;9.73;;;;;;;19.25;62.09;100547.88;10200077;29;20166;-76
2023/06/28 22:52:43;;;;;;;18.42;11.57;;;;;;;19.21;62.13;100546.56;10193851;29;20052;-75
2023/06/28 22:57:48;;;;;;;20.60;12.40;;;;;;;19.14;62.27;100540.13;10212979;29;20464;-77
2023/06/28 23:02:51;;;;;;;15.32;10.77;;;;;;;19.20;62.60;100539.44;10216509;29;20048;-78
2023/06/28 23:07:54;;;;;;;14.20;10.68;;;;;;;19.27;62.33;100537.69;10205921;29;20416;-77
2023/06/28 23:12:58;;;;;;;16.55;12.52;;;;;;;19.40;62.37;100539.84;10208305;29;20411;-77
2023/06/28 23:18:01;;;;;;;16.95;13.38;;;;;;;19.46;62.44;100536.41;10198314;29;20048;-77
2023/06/28 23:23:04;;;;;;;15.68;12.40;;;;;;;19.54;62.23;100530.91;10222810;29;20035;-77
2023/06/28 23:28:08;;;;;;;17.65;12.77;;;;;;;19.55;62.08;100534.47;10218042;29;20055;-77